createdAt,value
2023-04-04T00:01:36.982Z,103319.38
2023-04-04T00:03:39.085Z,103324.81
2023-04-04T00:05:40.954Z,103322.25
2023-04-04T00:07:42.784Z,103330.34
2023-04-04T00:09:44.558Z,103322.50
2023-04-04T00:11:46.654Z,103319.81
2023-04-04T00:13:48.309Z,103315.50
2023-04-04T00:15:50.178Z,103313.75
2023-04-04T00:17:53.520Z,103323.72
2023-04-04T00:19:56.348Z,103312.13
2023-04-04T00:21:58.105Z,103314.88
2023-04-04T00:24:00.157Z,103307.88
2023-04-04T00:26:01.775Z,103307.06
2023-04-04T00:28:03.518Z,103303.63
2023-04-04T00:30:06.470Z,103294.78
2023-04-04T00:32:08.103Z,103301.13
2023-04-04T00:34:11.250Z,103292.22
2023-04-04T00:36:12.902Z,103286.91
2023-04-04T00:38:14.778Z,103286.91
2023-04-04T00:40:16.747Z,103296.78
2023-04-04T00:42:18.378Z,103288.84
2023-04-04T00:44:20.285Z,103289.78
2023-04-04T00:46:22.088Z,103289.00
2023-04-04T00:48:24.518Z,103290.81
2023-04-04T00:50:27.857Z,103288.22
2023-04-04T00:52:29.440Z,103292.81
2023-04-04T00:54:31.105Z,103283.97
2023-04-04T00:56:36.250Z,103283.19
2023-04-04T00:58:38.457Z,103281.56
2023-04-04T01:00:40.372Z,103279.88
2023-04-04T01:02:42.380Z,103284.38
2023-04-04T01:04:44.540Z,103277.38
2023-04-04T01:06:48.387Z,103284.66
2023-04-04T01:08:52.405Z,103279.38
2023-04-04T01:10:54.101Z,103283.97
2023-04-04T01:12:56.054Z,103271.69
2023-04-04T01:14:57.664Z,103278.84
2023-04-04T01:17:00.654Z,103282.47
2023-04-04T01:19:03.001Z,103273.66
2023-04-04T01:21:08.335Z,103274.66
2023-04-04T01:23:12.587Z,103268.53
2023-04-04T01:25:14.908Z,103271.38
2023-04-04T01:27:18.081Z,103271.47
2023-04-04T01:29:19.933Z,103264.38
2023-04-04T01:31:28.277Z,103265.41
2023-04-04T01:33:34.656Z,103267.22
2023-04-04T01:35:43.760Z,103265.47
2023-04-04T01:37:54.622Z,103255.78
2023-04-04T01:40:03.625Z,103260.28
2023-04-04T01:42:07.136Z,103256.84
2023-04-04T01:44:11.363Z,103250.59
2023-04-04T01:46:13.438Z,103252.50
2023-04-04T01:48:15.218Z,103251.66
2023-04-04T01:50:17.137Z,103249.91
2023-04-04T01:52:19.095Z,103250.84
2023-04-04T01:54:20.916Z,103255.34
2023-04-04T01:56:22.503Z,103252.66
2023-04-04T01:58:24.160Z,103247.41
2023-04-04T02:00:27.435Z,103248.34
2023-04-04T02:02:29.475Z,103245.72
2023-04-04T02:04:31.387Z,103249.38
2023-04-04T02:06:33.058Z,103251.19
2023-04-04T02:08:34.730Z,103242.34
2023-04-04T02:10:36.500Z,103240.53
2023-04-04T02:12:38.370Z,103239.78
2023-04-04T02:14:39.992Z,103230.00
2023-04-04T02:16:43.372Z,103232.75
2023-04-04T02:18:45.118Z,103234.59
2023-04-04T02:20:46.715Z,103223.00
2023-04-04T02:22:52.085Z,103230.19
2023-04-04T02:24:53.665Z,103224.88
2023-04-04T02:26:55.263Z,103223.19
2023-04-04T02:28:57.056Z,103227.66
2023-04-04T02:31:00.446Z,103213.47
2023-04-04T02:33:03.595Z,103216.16
2023-04-04T02:35:06.517Z,103213.59
2023-04-04T02:37:08.260Z,103219.00
2023-04-04T02:39:10.032Z,103211.03
2023-04-04T02:41:11.916Z,103220.09
2023-04-04T02:43:13.512Z,103213.88
2023-04-04T02:45:15.156Z,103213.97
2023-04-04T02:47:17.023Z,103211.38
2023-04-04T02:49:19.989Z,103210.59
2023-04-04T02:51:21.650Z,103209.75
2023-04-04T02:53:23.276Z,103218.69
2023-04-04T02:55:25.118Z,103213.34
2023-04-04T02:57:26.748Z,103214.28
2023-04-04T02:59:28.480Z,103215.25
2023-04-04T03:01:30.320Z,103209.97
2023-04-04T03:03:32.127Z,103206.34
2023-04-04T03:05:35.096Z,103204.63
2023-04-04T03:07:37.023Z,103204.63
2023-04-04T03:09:38.642Z,103196.66
2023-04-04T03:11:40.433Z,103193.97
2023-04-04T03:13:42.253Z,103194.84
2023-04-04T03:15:44.299Z,103193.97
2023-04-04T03:17:49.531Z,103185.94
2023-04-04T03:19:51.409Z,103192.19
2023-04-04T03:21:54.787Z,103182.44
2023-04-04T03:23:56.434Z,103184.25
2023-04-04T03:25:58.360Z,103185.13
2023-04-04T03:28:09.179Z,103180.59
2023-04-04T03:30:11.577Z,103180.59
2023-04-04T03:32:13.233Z,103182.44
2023-04-04T03:34:15.279Z,103184.25
2023-04-04T03:36:17.373Z,103178.91
2023-04-04T03:38:20.800Z,103177.16
2023-04-04T03:40:22.600Z,103183.44
2023-04-04T03:42:24.107Z,103175.41
2023-04-04T03:44:26.144Z,103178.19
2023-04-04T03:46:28.097Z,103173.72
2023-04-04T03:48:30.589Z,103174.66
2023-04-04T03:50:32.999Z,103179.13
2023-04-04T03:52:37.923Z,103172.03
2023-04-04T03:54:41.320Z,103178.44
2023-04-04T03:56:43.279Z,103180.16
2023-04-04T03:58:45.282Z,103173.06
2023-04-04T04:00:47.193Z,103170.41
2023-04-04T04:02:49.040Z,103173.16
2023-04-04T04:04:50.909Z,103173.16
2023-04-04T04:06:52.669Z,103175.81
2023-04-04T04:08:54.576Z,103166.09
2023-04-04T04:11:04.222Z,103170.47
2023-04-04T04:13:05.953Z,103169.59
2023-04-04T04:15:08.709Z,103166.16
2023-04-04T04:17:10.644Z,103163.47
2023-04-04T04:19:12.470Z,103173.31
2023-04-04T04:21:14.259Z,103163.53
2023-04-04T04:23:15.789Z,103162.72
2023-04-04T04:25:17.399Z,103160.97
2023-04-04T04:27:20.548Z,103166.31
2023-04-04T04:29:22.213Z,103159.22
2023-04-04T04:31:24.136Z,103160.09
2023-04-04T04:33:28.221Z,103159.22
2023-04-04T04:35:30.988Z,103161.03
2023-04-04T04:37:32.816Z,103162.06
2023-04-04T04:39:34.451Z,103159.41
2023-04-04T04:41:36.010Z,103162.94
2023-04-04T04:43:41.798Z,103159.47
2023-04-04T04:45:44.915Z,103163.94
2023-04-04T04:47:46.785Z,103153.34
2023-04-04T04:49:48.480Z,103154.22
2023-04-04T04:51:50.043Z,103158.75
2023-04-04T04:53:52.014Z,103158.69
2023-04-04T04:55:53.770Z,103154.28
2023-04-04T04:57:55.409Z,103151.53
2023-04-04T04:59:58.498Z,103146.19
2023-04-04T05:02:01.990Z,103161.28
2023-04-04T05:04:03.794Z,103148.78
2023-04-04T05:06:05.896Z,103152.31
2023-04-04T05:08:07.851Z,103146.91
2023-04-04T05:10:09.909Z,103153.88
2023-04-04T05:12:11.518Z,103153.88
2023-04-04T05:14:13.324Z,103144.06
2023-04-04T05:16:16.739Z,103148.38
2023-04-04T05:18:21.044Z,103153.66
2023-04-04T05:20:22.972Z,103147.25
2023-04-04T05:22:24.543Z,103151.50
2023-04-04T05:24:26.230Z,103152.22
2023-04-04T05:26:27.825Z,103148.34
2023-04-04T05:28:31.592Z,103157.94
2023-04-04T05:30:33.443Z,103153.31
2023-04-04T05:32:36.569Z,103151.16
2023-04-04T05:34:38.222Z,103153.47
2023-04-04T05:36:40.047Z,103154.09
2023-04-04T05:38:41.955Z,103152.91
2023-04-04T05:40:43.584Z,103143.69
2023-04-04T05:42:53.222Z,103143.31
2023-04-04T05:44:54.998Z,103145.56
2023-04-04T05:46:56.842Z,103139.88
2023-04-04T05:48:59.770Z,103129.69
2023-04-04T05:51:01.338Z,103130.22
2023-04-04T05:53:03.319Z,103124.41
2023-04-04T05:55:05.918Z,103129.34
2023-04-04T05:57:07.733Z,103128.91
2023-04-04T05:59:09.563Z,103117.81
2023-04-04T06:01:11.439Z,103126.28
2023-04-04T06:03:13.224Z,103115.28
2023-04-04T06:05:20.537Z,103119.34
2023-04-04T06:07:22.329Z,103112.72
2023-04-04T06:09:24.308Z,103113.22
2023-04-04T06:11:25.913Z,103107.31
2023-04-04T06:13:28.993Z,103107.75
2023-04-04T06:15:31.317Z,103111.66
2023-04-04T06:17:33.384Z,103109.38
2023-04-04T06:19:35.346Z,103107.88
2023-04-04T06:21:38.420Z,103109.13
2023-04-04T06:23:40.072Z,103105.88
2023-04-04T06:25:41.699Z,103097.34
2023-04-04T06:27:43.370Z,103097.63
2023-04-04T06:29:45.241Z,103104.25
2023-04-04T06:31:47.147Z,103094.72
2023-04-04T06:33:49.275Z,103096.75
2023-04-04T06:35:50.911Z,103086.25
2023-04-04T06:37:56.987Z,103091.78
2023-04-04T06:40:00.346Z,103085.72
2023-04-04T06:42:01.953Z,103089.50
2023-04-04T06:44:03.578Z,103090.66
2023-04-04T06:46:05.206Z,103088.13
2023-04-04T06:48:06.905Z,103086.44
2023-04-04T06:50:12.198Z,103087.31
2023-04-04T06:52:14.960Z,103091.88
2023-04-04T06:54:18.248Z,103084.66
2023-04-04T06:56:19.907Z,103078.44
2023-04-04T06:58:21.853Z,103083.16
2023-04-04T07:00:24.133Z,103078.97
2023-04-04T07:02:26.805Z,103075.72
2023-04-04T07:04:28.759Z,103076.94
2023-04-04T07:06:30.362Z,103073.56
2023-04-04T07:08:35.961Z,103077.44
2023-04-04T07:10:41.246Z,103078.47
2023-04-04T07:12:44.327Z,103074.03
2023-04-04T07:14:46.255Z,103068.97
2023-04-04T07:16:47.937Z,103067.44
2023-04-04T07:18:49.809Z,103057.56
2023-04-04T07:20:51.694Z,103063.13
2023-04-04T07:22:53.515Z,103053.38
2023-04-04T07:24:55.416Z,103066.06
2023-04-04T07:26:58.653Z,103066.00
2023-04-04T07:29:00.722Z,103057.09
2023-04-04T07:31:02.772Z,103055.28
2023-04-04T07:33:04.489Z,103058.88
2023-04-04T07:35:06.777Z,103056.19
2023-04-04T07:37:08.640Z,103054.25
2023-04-04T07:39:10.657Z,103048.84
2023-04-04T07:41:12.819Z,103051.56
2023-04-04T07:43:16.051Z,103041.91
2023-04-04T07:45:18.379Z,103040.06
2023-04-04T07:47:20.196Z,103044.59
2023-04-04T07:49:22.595Z,103037.34
2023-04-04T07:51:24.357Z,103029.22
2023-04-04T07:53:26.203Z,103037.16
2023-04-04T07:55:28.060Z,103036.16
2023-04-04T07:57:31.111Z,103032.56
2023-04-04T07:59:34.091Z,103027.81
2023-04-04T08:01:35.942Z,103033.19
2023-04-04T08:03:37.880Z,103029.81
2023-04-04T08:05:41.580Z,103033.88
2023-04-04T08:07:43.604Z,103028.53
2023-04-04T08:09:45.222Z,103027.16
2023-04-04T08:11:47.203Z,103032.78
2023-04-04T08:13:48.791Z,103027.69
2023-04-04T08:15:52.235Z,103028.28
2023-04-04T08:17:53.803Z,103038.56
2023-04-04T08:19:55.388Z,103043.31
2023-04-04T08:21:56.957Z,103034.41
2023-04-04T08:23:58.978Z,103027.13
2023-04-04T08:26:00.973Z,103028.91
2023-04-04T08:28:02.770Z,103035.47
2023-04-04T08:30:05.844Z,103037.53
2023-04-04T08:32:09.088Z,103030.16
2023-04-04T08:34:11.136Z,103020.31
2023-04-04T08:36:12.755Z,103017.38
2023-04-04T08:38:14.379Z,103016.16
2023-04-04T08:40:16.677Z,103017.00
2023-04-04T08:42:19.747Z,103015.75
2023-04-04T08:44:23.894Z,103017.03
2023-04-04T08:46:27.686Z,103014.34
2023-04-04T08:48:34.111Z,103010.19
2023-04-04T08:50:39.366Z,103006.19
2023-04-04T08:52:42.318Z,103013.34
2023-04-04T08:54:47.847Z,103006.91
2023-04-04T08:56:51.230Z,102998.66
2023-04-04T08:58:54.803Z,103004.47
2023-04-04T09:00:57.344Z,103002.78
2023-04-04T09:03:05.847Z,103004.34
2023-04-04T09:05:10.775Z,103001.47
2023-04-04T09:07:14.986Z,102999.63
2023-04-04T09:09:19.499Z,102993.63
2023-04-04T09:11:23.447Z,102987.75
2023-04-04T09:13:25.001Z,102997.31
2023-04-04T09:15:26.760Z,102992.59
2023-04-04T09:17:28.345Z,102997.00
2023-04-04T09:19:30.296Z,102994.47
2023-04-04T09:21:34.708Z,102998.88
2023-04-04T09:23:36.314Z,102994.88
2023-04-04T09:25:38.744Z,102989.59
2023-04-04T09:27:40.727Z,102989.75
2023-04-04T09:29:42.813Z,102992.78
2023-04-04T09:31:44.790Z,102982.03
2023-04-04T09:33:49.129Z,102994.47
2023-04-04T09:35:55.852Z,102983.16
2023-04-04T09:37:59.348Z,102992.88
2023-04-04T09:40:01.533Z,102987.59
2023-04-04T09:42:04.225Z,102986.88
2023-04-04T09:44:06.638Z,102982.97
2023-04-04T09:46:08.500Z,102983.94
2023-04-04T09:48:10.285Z,102971.31
2023-04-04T09:50:22.029Z,102980.88
2023-04-04T09:52:23.632Z,102978.59
2023-04-04T09:54:29.677Z,102979.28
2023-04-04T09:56:33.536Z,102970.97
2023-04-04T09:58:35.391Z,102977.97
2023-04-04T10:00:40.836Z,102970.22
2023-04-04T10:02:48.671Z,102968.94
2023-04-04T10:04:56.460Z,102969.88
2023-04-04T10:07:05.162Z,102968.81
2023-04-04T10:09:08.154Z,102969.34
2023-04-04T10:11:12.609Z,102956.06
2023-04-04T10:13:14.497Z,102967.28
2023-04-04T10:17:38.325Z,102959.59
2023-04-04T10:19:41.054Z,102953.72
2023-04-04T10:21:43.134Z,102960.50
2023-04-04T10:23:47.023Z,102952.06
2023-04-04T10:25:48.787Z,102955.34
2023-04-04T10:27:51.939Z,102950.66
2023-04-04T10:29:54.142Z,102949.34
2023-04-04T10:32:02.495Z,102942.88
2023-04-04T10:34:10.853Z,102941.34
2023-04-04T10:36:14.430Z,102948.53
2023-04-04T10:38:21.313Z,102936.66
2023-04-04T10:40:26.264Z,102938.66
2023-04-04T10:42:38.129Z,102922.66
2023-04-04T10:44:41.317Z,102921.69
2023-04-04T10:46:47.369Z,102913.88
2023-04-04T10:48:49.427Z,102917.66
2023-04-04T10:50:51.287Z,102916.63
2023-04-04T10:52:53.364Z,102914.59
2023-04-04T10:54:59.172Z,102906.75
2023-04-04T10:57:01.407Z,102910.34
2023-04-04T10:59:11.351Z,102907.78
2023-04-04T11:01:14.543Z,102907.44
2023-04-04T11:03:16.223Z,102899.94
2023-04-04T11:05:20.582Z,102903.50
2023-04-04T11:07:28.664Z,102908.09
2023-04-04T11:09:50.396Z,102907.53
2023-04-04T11:12:07.861Z,102892.06
2023-04-04T11:14:11.283Z,102902.47
2023-04-04T11:16:14.321Z,102899.34
2023-04-04T11:18:30.716Z,102900.00
2023-04-04T11:20:36.343Z,102900.63
2023-04-04T11:22:38.348Z,102895.31
2023-04-04T11:24:43.287Z,102902.13
2023-04-04T11:26:45.658Z,102892.50
2023-04-04T11:28:47.328Z,102902.25
2023-04-04T11:30:49.116Z,102892.31
2023-04-04T11:33:04.102Z,102889.41
2023-04-04T11:35:08.789Z,102894.91
2023-04-04T11:37:17.136Z,102886.00
2023-04-04T11:39:27.060Z,102893.34
2023-04-04T11:41:43.743Z,102888.19
2023-04-04T11:43:45.582Z,102884.44
2023-04-04T11:45:47.666Z,102890.41
2023-04-04T11:47:50.560Z,102882.84
2023-04-04T11:49:54.233Z,102890.03
2023-04-04T11:51:56.060Z,102885.56
2023-04-04T11:53:57.938Z,102886.44
2023-04-04T11:55:59.590Z,102890.03
2023-04-04T11:58:12.612Z,102891.38
2023-04-04T12:00:29.474Z,102883.31
2023-04-04T12:02:32.662Z,102877.47
2023-04-04T12:04:35.832Z,102877.94
2023-04-04T12:06:40.747Z,102880.50
2023-04-04T12:08:42.929Z,102877.56
2023-04-04T12:10:45.155Z,102875.03
2023-04-04T12:12:46.766Z,102880.69
2023-04-04T12:14:49.063Z,102880.19
2023-04-04T12:16:52.051Z,102875.25
2023-04-04T12:18:56.769Z,102869.63
2023-04-04T12:20:58.439Z,102871.50
2023-04-04T12:23:02.210Z,102864.13
2023-04-04T12:25:04.192Z,102860.38
2023-04-04T12:27:06.623Z,102865.66
2023-04-04T12:29:09.533Z,102862.75
2023-04-04T12:31:13.370Z,102859.78
2023-04-04T12:33:15.073Z,102860.31
2023-04-04T12:35:17.157Z,102854.84
2023-04-04T12:37:22.477Z,102860.81
2023-04-04T12:39:28.115Z,102857.69
2023-04-04T12:41:29.920Z,102857.31
2023-04-04T12:43:31.807Z,102856.09
2023-04-04T12:45:38.041Z,102850.44
2023-04-04T12:47:51.280Z,102853.34
2023-04-04T12:49:54.113Z,102843.44
2023-04-04T12:51:55.952Z,102853.06
2023-04-04T12:53:57.542Z,102842.28
2023-04-04T12:56:03.983Z,102841.25
2023-04-04T12:58:06.648Z,102848.59
2023-04-04T13:00:09.712Z,102845.00
2023-04-04T13:02:13.947Z,102845.66
2023-04-04T13:04:16.208Z,102837.97
2023-04-04T13:06:18.178Z,102841.34
2023-04-04T13:08:20.223Z,102839.94
2023-04-04T13:10:21.835Z,102826.91
2023-04-04T13:12:25.350Z,102831.53
2023-04-04T13:14:27.823Z,102837.22
2023-04-04T13:16:31.607Z,102834.00
2023-04-04T13:18:36.190Z,102832.47
2023-04-04T13:20:38.825Z,102828.69
2023-04-04T13:22:41.517Z,102829.75
2023-04-04T13:24:43.317Z,102829.75
2023-04-04T13:26:45.015Z,102834.16
2023-04-04T13:28:48.501Z,102829.75
2023-04-04T13:30:50.180Z,102822.56
2023-04-04T13:32:52.160Z,102818.28
2023-04-04T13:34:53.927Z,102816.97
2023-04-04T13:36:55.619Z,102813.91
2023-04-04T13:38:58.051Z,102813.06
2023-04-04T13:41:00.378Z,102810.50
2023-04-04T13:43:02.029Z,102809.00
2023-04-04T13:45:06.832Z,102801.81
2023-04-04T13:47:08.886Z,102806.63
2023-04-04T13:49:10.595Z,102801.31
2023-04-04T13:51:12.203Z,102806.31
2023-04-04T13:53:13.804Z,102810.25
2023-04-04T13:55:15.805Z,102803.91
2023-04-04T13:57:17.451Z,102805.78
2023-04-04T13:59:19.146Z,102806.47
2023-04-04T14:01:23.170Z,102803.41
2023-04-04T14:03:25.251Z,102800.28
2023-04-04T14:05:27.108Z,102796.31
2023-04-04T14:07:28.905Z,102804.38
2023-04-04T14:09:30.647Z,102797.88
2023-04-04T14:11:34.436Z,102793.97
2023-04-04T14:13:36.874Z,102799.63
2023-04-04T14:15:39.574Z,102791.44
2023-04-04T14:17:42.852Z,102800.66
2023-04-04T14:19:44.544Z,102793.47
2023-04-04T14:21:46.378Z,102788.16
2023-04-04T14:23:47.972Z,102789.19
2023-04-04T14:25:49.890Z,102786.84
2023-04-04T14:27:52.352Z,102790.44
2023-04-04T14:29:54.208Z,102781.53
2023-04-04T14:31:55.926Z,102792.00
2023-04-04T14:33:59.149Z,102780.56
2023-04-04T14:36:01.423Z,102785.19
2023-04-04T14:38:03.380Z,102777.81
2023-04-04T14:40:07.816Z,102779.91
2023-04-04T14:42:10.871Z,102782.16
2023-04-04T14:44:12.965Z,102775.34
2023-04-04T14:46:14.523Z,102778.41
2023-04-04T14:48:16.317Z,102776.06
2023-04-04T14:50:19.621Z,102780.50
2023-04-04T14:52:21.280Z,102775.69
2023-04-04T14:54:22.930Z,102778.63
2023-04-04T14:56:25.043Z,102774.88
2023-04-04T14:58:26.781Z,102780.50
2023-04-04T15:00:28.615Z,102772.47
2023-04-04T15:02:30.698Z,102769.25
2023-04-04T15:04:32.367Z,102772.19
2023-04-04T15:06:35.839Z,102765.38
2023-04-04T15:08:38.277Z,102768.09
2023-04-04T15:10:40.120Z,102765.91
2023-04-04T15:12:42.426Z,102765.03
2023-04-04T15:14:44.259Z,102763.84
2023-04-04T15:16:45.973Z,102761.78
2023-04-04T15:18:47.592Z,102755.28
2023-04-04T15:20:50.032Z,102760.53
2023-04-04T15:22:53.032Z,102765.69
2023-04-04T15:24:54.616Z,102764.63
2023-04-04T15:26:57.801Z,102767.00
2023-04-04T15:28:59.834Z,102761.50
2023-04-04T15:31:01.770Z,102762.56
2023-04-04T15:33:03.382Z,102762.94
2023-04-04T15:35:05.696Z,102757.63
2023-04-04T15:37:07.275Z,102757.81
2023-04-04T15:39:10.527Z,102751.00
2023-04-04T15:41:12.147Z,102750.50
2023-04-04T15:43:13.738Z,102750.38
2023-04-04T15:45:15.806Z,102746.31
2023-04-04T15:47:17.529Z,102751.31
2023-04-04T15:49:19.500Z,102745.16
2023-04-04T15:51:21.486Z,102745.53
2023-04-04T15:53:23.102Z,102744.00
2023-04-04T15:55:27.090Z,102746.06
2023-04-04T15:57:29.093Z,102744.38
2023-04-04T15:59:30.769Z,102749.19
2023-04-04T16:01:33.412Z,102736.88
2023-04-04T16:03:35.264Z,102740.00
2023-04-04T16:05:37.166Z,102738.66
2023-04-04T16:07:38.911Z,102739.19
2023-04-04T16:09:40.528Z,102728.13
2023-04-04T16:11:43.641Z,102727.13
2023-04-04T16:13:45.242Z,102732.78
2023-04-04T16:15:46.921Z,102736.78
2023-04-04T16:17:48.591Z,102742.25
2023-04-04T16:19:50.414Z,102731.53
2023-04-04T16:21:52.875Z,102732.41
2023-04-04T16:23:54.473Z,102732.59
2023-04-04T16:25:56.117Z,102725.63
2023-04-04T16:27:59.488Z,102727.56
2023-04-04T16:30:01.460Z,102735.25
2023-04-04T16:32:03.086Z,102742.78
2023-04-04T16:34:04.844Z,102730.16
2023-04-04T16:36:07.689Z,102731.16
2023-04-04T16:38:09.575Z,102731.88
2023-04-04T16:40:13.992Z,102733.56
2023-04-04T16:42:17.139Z,102737.16
2023-04-04T16:44:20.051Z,102737.84
2023-04-04T16:46:21.939Z,102734.91
2023-04-04T16:48:23.632Z,102742.91
2023-04-04T16:50:25.380Z,102737.44
2023-04-04T16:52:27.223Z,102733.66
2023-04-04T16:54:28.887Z,102734.50
2023-04-04T16:56:30.686Z,102735.19
2023-04-04T16:58:32.251Z,102729.69
2023-04-04T17:00:35.365Z,102720.66
2023-04-04T17:02:36.922Z,102723.19
2023-04-04T17:04:41.100Z,102720.44
2023-04-04T17:06:43.844Z,102714.13
2023-04-04T17:08:45.858Z,102713.06
2023-04-04T17:10:47.764Z,102711.16
2023-04-04T17:12:49.379Z,102716.56
2023-04-04T17:14:51.403Z,102715.50
2023-04-04T17:16:55.042Z,102716.47
2023-04-04T17:18:56.685Z,102710.81
2023-04-04T17:21:01.965Z,102708.06
2023-04-04T17:23:12.320Z,102710.91
2023-04-04T17:25:14.145Z,102710.84
2023-04-04T17:27:19.750Z,102711.63
2023-04-04T17:29:38.207Z,102714.28
2023-04-04T17:31:40.640Z,102713.22
2023-04-04T17:33:45.305Z,102718.56
2023-04-04T17:35:47.222Z,102703.91
2023-04-04T17:37:51.864Z,102705.53
2023-04-04T17:39:57.279Z,102709.75
2023-04-04T17:41:59.300Z,102707.97
2023-04-04T17:44:04.367Z,102705.88
2023-04-04T17:46:17.016Z,102703.06
2023-04-04T17:48:19.350Z,102709.16
2023-04-04T17:50:22.673Z,102707.34
2023-04-04T17:52:24.578Z,102708.66
2023-04-04T17:54:26.453Z,102706.88
2023-04-04T17:56:28.305Z,102703.06
2023-04-04T17:58:29.958Z,102703.84
2023-04-04T18:00:32.006Z,102702.72
2023-04-04T18:02:33.718Z,102700.78
2023-04-04T18:04:37.576Z,102695.25
2023-04-04T18:06:41.876Z,102702.28
2023-04-04T18:08:44.073Z,102702.88
2023-04-04T18:10:46.102Z,102687.50
2023-04-04T18:12:48.106Z,102688.13
2023-04-04T18:14:49.867Z,102692.25
2023-04-04T18:16:52.013Z,102692.31
2023-04-04T18:18:54.387Z,102696.47
2023-04-04T18:20:56.920Z,102698.75
2023-04-04T18:23:00.282Z,102696.63
2023-04-04T18:25:02.330Z,102694.53
2023-04-04T18:27:04.706Z,102697.06
2023-04-04T18:29:07.133Z,102696.81
2023-04-04T18:31:09.186Z,102698.09
2023-04-04T18:33:11.626Z,102703.25
2023-04-04T18:35:13.500Z,102703.81
2023-04-04T18:37:15.580Z,102701.13
2023-04-04T18:39:18.877Z,102706.00
2023-04-04T18:41:20.743Z,102707.41
2023-04-04T18:43:22.963Z,102703.72
2023-04-04T18:45:33.668Z,102707.84
2023-04-04T18:47:39.888Z,102708.25
2023-04-04T18:49:43.825Z,102708.84
2023-04-04T18:51:46.582Z,102708.56
2023-04-04T18:53:48.531Z,102701.13
2023-04-04T18:55:52.217Z,102701.69
2023-04-04T18:57:54.245Z,102700.53
2023-04-04T18:59:57.393Z,102696.56
2023-04-04T19:01:59.401Z,102706.94
2023-04-04T19:04:03.613Z,102695.94
2023-04-04T19:06:07.244Z,102698.22
2023-04-04T19:08:12.344Z,102696.06
2023-04-04T19:10:15.146Z,102699.31
2023-04-04T19:12:18.545Z,102697.19
2023-04-04T19:14:20.374Z,102696.88
2023-04-04T19:16:22.601Z,102700.97
2023-04-04T19:18:24.224Z,102704.09
2023-04-04T19:20:25.871Z,102709.06
2023-04-04T19:22:27.746Z,102712.28
2023-04-04T19:24:29.774Z,102713.44
2023-04-04T19:26:31.995Z,102711.28
2023-04-04T19:28:35.203Z,102713.41
2023-04-04T19:30:42.481Z,102703.84
2023-04-04T19:32:44.158Z,102711.38
2023-04-04T19:34:46.765Z,102704.50
2023-04-04T19:36:48.422Z,102702.19
2023-04-04T19:38:54.531Z,102696.19
2023-04-04T19:40:58.980Z,102696.75
2023-04-04T19:43:00.557Z,102696.28
2023-04-04T19:45:12.790Z,102698.41
2023-04-04T19:47:21.085Z,102699.75
2023-04-04T19:49:26.300Z,102701.16
2023-04-04T19:51:38.252Z,102697.72
2023-04-04T19:53:40.093Z,102699.97
2023-04-04T19:55:42.235Z,102694.09
2023-04-04T19:57:44.121Z,102692.53
2023-04-04T19:59:55.853Z,102699.19
2023-04-04T20:02:00.802Z,102691.44
2023-04-04T20:04:09.524Z,102692.56
2023-04-04T20:06:12.975Z,102683.97
2023-04-04T20:08:14.916Z,102686.84
2023-04-04T20:10:36.428Z,102683.38
2023-04-04T20:12:38.052Z,102688.19
2023-04-04T20:14:40.184Z,102684.91
2023-04-04T20:16:41.823Z,102683.31
2023-04-04T20:18:46.453Z,102690.69
2023-04-04T20:20:58.179Z,102683.81
2023-04-04T20:23:00.053Z,102684.09
2023-04-04T20:25:02.200Z,102687.03
2023-04-04T20:27:06.208Z,102684.59
2023-04-04T20:29:10.116Z,102691.97
2023-04-04T20:31:16.198Z,102684.97
2023-04-04T20:33:35.372Z,102688.66
2023-04-04T20:35:39.435Z,102681.94
2023-04-04T20:37:41.144Z,102678.66
2023-04-04T20:39:47.639Z,102680.75
2023-04-04T20:41:51.420Z,102678.44
2023-04-04T20:43:54.813Z,102682.25
2023-04-04T20:45:56.461Z,102677.09
2023-04-04T20:47:58.301Z,102672.94
2023-04-04T20:50:00.451Z,102673.16
2023-04-04T20:52:04.946Z,102665.34
2023-04-04T20:54:06.783Z,102669.16
2023-04-04T20:56:28.326Z,102671.25
2023-04-04T20:58:30.667Z,102679.47
2023-04-04T21:00:40.435Z,102677.88
2023-04-04T21:02:42.820Z,102674.56
2023-04-04T21:04:45.400Z,102669.44
2023-04-04T21:06:47.348Z,102669.69
2023-04-04T21:08:51.242Z,102669.09
2023-04-04T21:10:54.164Z,102663.81
2023-04-04T21:12:58.647Z,102668.44
2023-04-04T21:15:00.497Z,102669.56
2023-04-04T21:17:02.460Z,102666.16
2023-04-04T21:19:04.764Z,102660.88
2023-04-04T21:21:09.038Z,102660.16
2023-04-04T21:23:29.993Z,102659.28
2023-04-04T21:25:44.611Z,102658.44
2023-04-04T21:27:54.428Z,102661.38
2023-04-04T21:29:56.240Z,102658.78
2023-04-04T21:31:58.412Z,102656.34
2023-04-04T21:34:07.790Z,102655.50
2023-04-04T21:36:17.692Z,102654.78
2023-04-04T21:38:25.000Z,102644.97
2023-04-04T21:40:26.891Z,102654.16
2023-04-04T21:42:31.595Z,102652.44
2023-04-04T21:44:33.385Z,102642.78
2023-04-04T21:46:39.135Z,102645.47
2023-04-04T21:48:41.034Z,102639.22
2023-04-04T21:50:46.316Z,102638.34
2023-04-04T21:52:48.104Z,102642.88
2023-04-04T21:54:49.849Z,102635.91
2023-04-04T21:56:52.184Z,102637.75
2023-04-04T21:58:55.525Z,102640.56
2023-04-04T22:00:57.218Z,102636.88
2023-04-04T22:02:59.397Z,102636.88
2023-04-04T22:05:01.281Z,102627.22
2023-04-04T22:07:02.879Z,102627.22
2023-04-04T22:09:05.453Z,102630.78
2023-04-04T22:11:07.104Z,102626.47
2023-04-04T22:13:09.297Z,102627.31
2023-04-04T22:15:13.294Z,102630.03
2023-04-04T22:17:14.902Z,102632.81
2023-04-04T22:19:16.570Z,102624.75
2023-04-04T22:21:19.652Z,102628.44
2023-04-04T22:23:23.139Z,102630.28
2023-04-04T22:25:27.574Z,102635.66
2023-04-04T22:27:31.412Z,102625.00
2023-04-04T22:29:33.551Z,102627.84
2023-04-04T22:31:36.647Z,102635.91
2023-04-04T22:33:38.365Z,102626.97
2023-04-04T22:35:42.081Z,102627.09
2023-04-04T22:37:43.984Z,102631.75
2023-04-04T22:39:46.195Z,102630.78
2023-04-04T22:41:48.266Z,102632.63
2023-04-04T22:43:49.890Z,102637.13
2023-04-04T22:45:52.425Z,102629.16
2023-04-04T22:47:55.834Z,102625.59
2023-04-04T22:49:58.331Z,102620.22
2023-04-04T22:51:59.972Z,102620.22
2023-04-04T22:54:02.521Z,102622.06
2023-04-04T22:56:04.320Z,102623.78
2023-04-04T22:58:06.182Z,102622.19
2023-04-04T23:00:09.780Z,102619.50
2023-04-04T23:02:11.405Z,102620.34
2023-04-04T23:04:14.653Z,102617.66
2023-04-04T23:06:16.361Z,102611.41
2023-04-04T23:08:22.096Z,102619.50
2023-04-04T23:10:23.681Z,102619.50
2023-04-04T23:12:25.704Z,102618.63
2023-04-04T23:14:27.367Z,102619.50
2023-04-04T23:16:29.445Z,102615.94
2023-04-04T23:18:31.062Z,102623.06
2023-04-04T23:20:34.269Z,102619.50
2023-04-04T23:22:37.127Z,102618.63
2023-04-04T23:24:39.022Z,102617.66
2023-04-04T23:26:40.608Z,102609.44
2023-04-04T23:28:42.551Z,102606.75